Mount Pleasant, MI

4:55 PM EST on December 27, 2014 (GMT -0500)
Chippewa Township | Change Station
CLOSE
Current Station
Personal Weather Station
Location: Mt Pleasant, MI
Elevation: 755 ft
Nearby Weather Stations

Elev 755 ft 43.63 °N, 84.65 °W | Updated 43 seconds ago

Overcast
Overcast
45.9 °F
Feels Like 39 °F
N
16.0
Wind Variable Wind from WSW
Gusts 27.0 mph

Today
High -- | Low -- °F
--% Chance of Precip.
Yesterday
High -- | Low -- °F
Precip. -- in
8:11 AM 5:08 PM
Waxing Crescent, 40% visible
Pressure 29.84 in
Visibility 10.0 miles
Clouds Scattered Clouds 1800 ft
Scattered Clouds 2400 ft
Mostly Cloudy 3000 ft
Windchill 39 °F
Dew Point 28 °F
Humidity 49%
Rainfall -999.00 in
Snow Depth Not available.
UV 0 out of 12
Pollen .10 out of 12
Air Quality Not available.
Flu Activity Not available.
METAR KMOP 272135Z AUTO 22018G34KT 10SM SCT018 SCT024 BKN030 08/05 A2984 RMK AO2 T00750047

More Conditions Fewer Conditions

Pressure 29.84 in
Visibility 10.0 miles
Clouds Scattered Clouds 1800 ft
Scattered Clouds 2400 ft
Mostly Cloudy 3000 ft
Windchill 39 °F
Dew Point 28 °F
Humidity 49%
Rainfall -999.00 in
Snow Depth Not available.
UV 0 out of 12
Pollen .10 out of 12
Air Quality Not available.
Flu Activity Not available.
METAR KMOP 272135Z AUTO 22018G34KT 10SM SCT018 SCT024 BKN030 08/05 A2984 RMK AO2 T00750047

More Conditions Fewer Conditions

10-Day Weather Forecast

Almanac

Astronomy

Dec. 27, 2014 Rise Set
Actual Time
Civil Twilight
Nautical Twilight
Astronomical Twilight
Moon
Length of Visible Light
Length of Day
Tomorrow will be .
, % of the Moon is Illuminated

Today's Extremes

State Highs State Lows

Community

WunderPhotos

Upload Photos

1,781,073 photos uploaded!

WunderBlogs® & News

Nearby

Air Quality

  Air Quality AQ Index Pollutant
Not available.

Snow Depth

Station Depth Elevation

Earthquake Activity

City Distance Mag. Time & Date
Minimum magnitude displayed is 2.5.

Coastal Water Temperatures

Place Temperature

Nearby Weather Stations